createdAt,value
2022-11-09T00:01:29.765Z,4.20
2022-11-09T00:03:59.080Z,4.78
2022-11-09T00:06:28.089Z,3.78
2022-11-09T00:09:02.740Z,4.28
2022-11-09T00:11:33.935Z,4.03
2022-11-09T00:14:03.357Z,4.68
2022-11-09T00:16:31.505Z,3.90
2022-11-09T00:19:00.246Z,3.75
2022-11-09T00:21:28.686Z,4.35
2022-11-09T00:23:58.034Z,4.40
2022-11-09T00:26:26.556Z,3.88
2022-11-09T00:28:54.581Z,4.07
2022-11-09T00:31:25.617Z,4.03
2022-11-09T00:33:55.447Z,4.32
2022-11-09T00:36:25.631Z,4.13
2022-11-09T00:38:56.552Z,3.97
2022-11-09T00:41:25.013Z,3.50
2022-11-09T00:43:53.735Z,3.55
2022-11-09T00:46:23.838Z,3.70
2022-11-09T00:48:52.628Z,3.97
2022-11-09T00:51:20.588Z,4.05
2022-11-09T00:53:49.171Z,3.47
2022-11-09T00:56:17.140Z,3.90
2022-11-09T00:58:45.189Z,4.40
2022-11-09T01:01:14.942Z,4.30
2022-11-09T01:03:46.438Z,4.07
2022-11-09T01:06:16.889Z,4.18
2022-11-09T01:08:45.395Z,4.00
2022-11-09T01:11:16.424Z,4.13
2022-11-09T01:13:44.888Z,3.92
2022-11-09T01:16:15.220Z,3.80
2022-11-09T01:18:43.568Z,3.55
2022-11-09T01:21:14.297Z,3.15
2022-11-09T01:23:43.326Z,3.60
2022-11-09T01:26:13.272Z,3.08
2022-11-09T01:28:41.730Z,3.80
2022-11-09T01:31:12.310Z,3.40
2022-11-09T01:33:40.835Z,3.05
2022-11-09T01:36:11.277Z,3.33
2022-11-09T01:38:41.322Z,3.60
2022-11-09T01:41:13.449Z,3.15
2022-11-09T01:43:41.637Z,4.10
2022-11-09T01:46:17.248Z,3.58
2022-11-09T01:48:48.983Z,3.22
2022-11-09T01:51:27.523Z,3.65
2022-11-09T01:54:02.276Z,3.40
2022-11-09T01:56:31.992Z,3.60
2022-11-09T01:59:04.922Z,5.40
2022-11-09T02:01:33.844Z,3.60
2022-11-09T02:04:06.891Z,3.50
2022-11-09T02:09:14.309Z,3.60
2022-11-09T02:11:42.611Z,3.90
2022-11-09T02:14:11.426Z,3.58
2022-11-09T02:16:40.110Z,3.95
2022-11-09T02:19:08.447Z,3.80
2022-11-09T02:21:37.860Z,3.60
2022-11-09T02:24:06.637Z,3.65
2022-11-09T02:26:39.821Z,3.63
2022-11-09T02:29:10.596Z,3.75
2022-11-09T02:31:42.528Z,3.25
2022-11-09T02:34:13.818Z,3.47
2022-11-09T02:36:44.452Z,4.32
2022-11-09T02:39:23.017Z,4.53
2022-11-09T02:41:56.542Z,3.78
2022-11-09T02:44:30.524Z,3.58
2022-11-09T02:46:58.625Z,4.20
2022-11-09T02:49:28.465Z,3.50
2022-11-09T02:51:57.820Z,3.80
2022-11-09T02:54:25.879Z,3.15
2022-11-09T02:56:55.476Z,3.30
2022-11-09T02:59:23.933Z,3.50
2022-11-09T03:01:51.999Z,3.70
2022-11-09T03:04:20.274Z,4.00
2022-11-09T03:06:48.932Z,3.88
2022-11-09T03:09:21.726Z,3.95
2022-11-09T03:11:51.410Z,3.55
2022-11-09T03:14:20.346Z,3.33
2022-11-09T03:16:53.096Z,3.50
2022-11-09T03:19:21.085Z,3.45
2022-11-09T03:21:52.145Z,2.97
2022-11-09T03:24:25.645Z,3.30
2022-11-09T03:26:57.652Z,3.78
2022-11-09T03:29:35.754Z,3.20
2022-11-09T03:32:04.466Z,3.50
2022-11-09T03:34:32.436Z,3.45
2022-11-09T03:37:00.823Z,3.10
2022-11-09T03:39:30.196Z,3.33
2022-11-09T03:41:58.136Z,3.60
2022-11-09T03:44:27.099Z,3.08
2022-11-09T03:46:55.119Z,3.17
2022-11-09T03:49:24.810Z,3.33
2022-11-09T03:51:52.955Z,3.08
2022-11-09T03:54:21.134Z,3.30
2022-11-09T03:56:50.434Z,3.25
2022-11-09T03:59:19.096Z,3.40
2022-11-09T04:01:47.084Z,3.58
2022-11-09T04:04:15.118Z,3.70
2022-11-09T04:06:43.579Z,3.63
2022-11-09T04:09:11.725Z,3.50
2022-11-09T04:11:39.678Z,3.55
2022-11-09T04:14:09.553Z,3.65
2022-11-09T04:16:38.455Z,3.45
2022-11-09T04:19:06.582Z,3.10
2022-11-09T04:21:34.634Z,3.40
2022-11-09T04:24:02.592Z,2.90
2022-11-09T04:26:30.623Z,3.15
2022-11-09T04:28:59.286Z,3.00
2022-11-09T04:31:30.941Z,3.17
2022-11-09T04:33:58.859Z,3.38
2022-11-09T04:36:27.024Z,3.70
2022-11-09T04:38:55.025Z,3.10
2022-11-09T04:41:22.996Z,3.22
2022-11-09T04:43:51.033Z,3.88
2022-11-09T04:46:19.018Z,3.33
2022-11-09T04:48:48.303Z,3.42
2022-11-09T04:51:17.068Z,3.78
2022-11-09T04:53:45.282Z,3.85
2022-11-09T04:56:13.588Z,3.95
2022-11-09T04:58:41.509Z,3.90
2022-11-09T05:01:12.629Z,4.00
2022-11-09T05:03:41.272Z,3.97
2022-11-09T05:06:25.196Z,4.25
2022-11-09T05:08:53.710Z,4.00
2022-11-09T05:11:22.166Z,4.25
2022-11-09T05:13:51.530Z,3.75
2022-11-09T05:16:19.943Z,3.92
2022-11-09T05:18:48.021Z,3.33
2022-11-09T05:21:17.687Z,4.07
2022-11-09T05:23:58.793Z,4.50
2022-11-09T05:26:28.728Z,4.97
2022-11-09T05:28:57.576Z,5.75
2022-11-09T05:31:25.892Z,4.32
2022-11-09T05:33:55.062Z,3.95
2022-11-09T05:36:24.960Z,4.13
2022-11-09T05:38:53.196Z,4.00
2022-11-09T05:41:21.520Z,4.07
2022-11-09T05:43:49.699Z,4.40
2022-11-09T05:46:18.899Z,4.60
2022-11-09T05:48:47.353Z,4.40
2022-11-09T05:51:16.790Z,4.78
2022-11-09T05:53:47.159Z,4.55
2022-11-09T05:56:16.392Z,4.50
2022-11-09T05:58:44.512Z,5.18
2022-11-09T06:01:16.835Z,5.45
2022-11-09T06:03:45.217Z,4.78
2022-11-09T06:06:14.996Z,5.53
2022-11-09T06:08:43.174Z,6.03
2022-11-09T06:11:21.468Z,5.40
2022-11-09T06:13:51.011Z,3.90
2022-11-09T06:16:18.986Z,4.20
2022-11-09T06:18:47.059Z,5.30
2022-11-09T06:21:14.970Z,4.72
2022-11-09T06:23:42.957Z,4.95
2022-11-09T06:26:13.084Z,6.15
2022-11-09T06:28:44.066Z,6.03
2022-11-09T06:31:16.604Z,5.82
2022-11-09T06:33:47.057Z,7.07
2022-11-09T06:36:15.164Z,6.95
2022-11-09T06:38:43.329Z,7.05
2022-11-09T06:41:12.727Z,6.55
2022-11-09T06:43:40.716Z,6.03
2022-11-09T06:46:10.794Z,6.30
2022-11-09T06:48:39.246Z,8.30
2022-11-09T06:51:07.982Z,6.80
2022-11-09T06:53:37.834Z,8.48
2022-11-09T06:56:06.982Z,6.65
2022-11-09T06:58:37.129Z,5.93
2022-11-09T07:01:09.695Z,5.60
2022-11-09T07:03:38.703Z,6.07
2022-11-09T07:06:08.273Z,6.10
2022-11-09T07:08:36.979Z,6.68
2022-11-09T07:11:06.563Z,7.95
2022-11-09T07:13:36.213Z,5.93
2022-11-09T07:16:05.231Z,6.63
2022-11-09T07:18:33.602Z,7.10
2022-11-09T07:21:08.892Z,6.43
2022-11-09T07:23:41.413Z,6.72
2022-11-09T07:26:09.992Z,6.43
2022-11-09T07:28:39.570Z,5.97
2022-11-09T07:31:07.769Z,7.35
2022-11-09T07:33:36.038Z,6.75
2022-11-09T07:36:06.708Z,5.70
2022-11-09T07:38:34.744Z,5.75
2022-11-09T07:41:03.517Z,5.50
2022-11-09T07:43:31.623Z,6.78
2022-11-09T07:46:06.549Z,6.25
2022-11-09T07:48:34.661Z,5.13
2022-11-09T07:51:03.287Z,6.93
2022-11-09T07:53:31.516Z,7.93
2022-11-09T07:56:00.435Z,8.63
2022-11-09T07:58:29.366Z,6.40
2022-11-09T08:00:58.198Z,6.43
2022-11-09T08:03:27.630Z,7.50
2022-11-09T08:05:58.411Z,7.10
2022-11-09T08:08:26.494Z,8.20
2022-11-09T08:10:54.612Z,8.23
2022-11-09T08:13:22.990Z,6.93
2022-11-09T08:15:51.516Z,7.13
2022-11-09T08:18:22.947Z,6.10
2022-11-09T08:20:52.649Z,7.57
2022-11-09T08:23:21.957Z,7.57
2022-11-09T08:25:50.879Z,7.07
2022-11-09T08:28:19.303Z,6.78
2022-11-09T08:30:55.308Z,6.38
2022-11-09T08:33:23.352Z,6.28
2022-11-09T08:35:53.457Z,7.57
2022-11-09T08:38:22.323Z,7.82
2022-11-09T08:40:50.741Z,7.20
2022-11-09T08:43:18.867Z,7.10
2022-11-09T08:45:47.055Z,7.95
2022-11-09T08:48:15.194Z,6.85
2022-11-09T08:50:43.232Z,6.88
2022-11-09T08:53:12.723Z,7.47
2022-11-09T08:55:40.802Z,7.85
2022-11-09T08:58:11.620Z,6.93
2022-11-09T09:00:42.195Z,7.10
2022-11-09T09:03:10.194Z,7.50
2022-11-09T09:05:39.108Z,7.93
2022-11-09T09:08:07.956Z,8.57
2022-11-09T09:10:37.407Z,8.18
2022-11-09T09:13:05.783Z,7.72
2022-11-09T09:15:34.585Z,9.35
2022-11-09T09:18:03.612Z,7.85
2022-11-09T09:20:32.107Z,7.72
2022-11-09T09:23:00.667Z,7.78
2022-11-09T09:25:29.208Z,6.32
2022-11-09T09:27:58.857Z,6.32
2022-11-09T09:30:27.075Z,6.88
2022-11-09T09:32:59.254Z,9.18
2022-11-09T09:35:27.622Z,7.82
2022-11-09T09:37:58.133Z,7.43
2022-11-09T09:40:30.475Z,7.78
2022-11-09T09:43:00.060Z,8.68
2022-11-09T09:45:32.112Z,7.57
2022-11-09T09:48:04.270Z,7.47
2022-11-09T09:50:38.226Z,7.53
2022-11-09T09:53:24.337Z,7.30
2022-11-09T09:55:57.148Z,8.10
2022-11-09T09:58:28.641Z,6.83
2022-11-09T10:01:01.154Z,8.05
2022-11-09T10:03:29.257Z,7.25
2022-11-09T10:06:10.142Z,8.27
2022-11-09T10:08:49.543Z,7.43
2022-11-09T10:11:29.949Z,7.10
2022-11-09T10:14:12.329Z,7.60
2022-11-09T10:16:45.593Z,6.77
2022-11-09T10:19:29.310Z,6.55
2022-11-09T10:22:04.814Z,6.90
2022-11-09T10:25:16.864Z,7.30
2022-11-09T10:27:36.762Z,7.45
2022-11-09T10:30:13.685Z,11.87
2022-11-09T10:32:46.741Z,6.85
2022-11-09T10:35:20.281Z,7.25
2022-11-09T10:37:50.207Z,6.68
2022-11-09T10:40:24.042Z,6.20
2022-11-09T10:43:12.005Z,7.03
2022-11-09T10:46:05.949Z,7.35
2022-11-09T10:48:54.011Z,6.38
2022-11-09T10:51:42.571Z,7.32
2022-11-09T10:54:32.448Z,6.65
2022-11-09T10:57:21.142Z,5.30
2022-11-09T11:00:16.318Z,7.63
2022-11-09T11:03:12.978Z,6.13
2022-11-09T11:06:01.178Z,5.65
2022-11-09T11:08:49.656Z,5.95
2022-11-09T11:11:38.168Z,5.85
2022-11-09T11:14:30.609Z,5.68
2022-11-09T11:17:23.024Z,5.00
2022-11-09T11:20:36.091Z,5.70
2022-11-09T11:23:24.831Z,4.75
2022-11-09T11:26:36.038Z,5.85
2022-11-09T11:29:44.946Z,5.10
2022-11-09T11:32:31.956Z,5.20
2022-11-09T11:35:23.872Z,4.40
2022-11-09T11:38:27.426Z,6.63
2022-11-09T11:41:37.167Z,5.85
2022-11-09T11:44:41.980Z,4.75
2022-11-09T11:47:34.942Z,5.15
2022-11-09T11:50:37.029Z,4.47
2022-11-09T11:53:43.297Z,5.00
2022-11-09T11:56:34.710Z,6.03
2022-11-09T11:59:40.235Z,4.80
2022-11-09T12:02:45.042Z,4.38
2022-11-09T12:06:10.944Z,4.72
2022-11-09T12:09:09.061Z,4.30
2022-11-09T12:12:08.448Z,5.25
2022-11-09T12:15:15.016Z,6.85
2022-11-09T12:18:16.391Z,4.88
2022-11-09T12:21:15.506Z,4.75
2022-11-09T12:24:28.965Z,4.97
2022-11-09T12:27:32.858Z,4.57
2022-11-09T12:30:22.179Z,4.80
2022-11-09T12:33:14.314Z,5.57
2022-11-09T12:36:07.221Z,4.47
2022-11-09T12:39:00.889Z,3.40
2022-11-09T12:41:50.092Z,3.78
2022-11-09T12:44:41.367Z,4.07
2022-11-09T12:47:32.615Z,3.95
2022-11-09T12:50:23.226Z,3.70
2022-11-09T12:53:10.202Z,4.20
2022-11-09T12:56:02.503Z,3.38
2022-11-09T12:58:50.874Z,4.13
2022-11-09T13:01:49.667Z,4.28
2022-11-09T13:04:37.633Z,4.63
2022-11-09T13:07:49.676Z,3.72
2022-11-09T13:10:38.290Z,3.95
2022-11-09T13:13:27.037Z,3.40
2022-11-09T13:16:33.773Z,4.45
2022-11-09T13:19:51.126Z,4.10
2022-11-09T13:23:01.727Z,4.13
2022-11-09T13:25:52.878Z,3.83
2022-11-09T13:29:01.450Z,3.55
2022-11-09T13:32:26.253Z,4.80
2022-11-09T13:35:59.115Z,4.28
2022-11-09T13:38:49.661Z,3.65
2022-11-09T13:41:44.846Z,3.67
2022-11-09T13:44:35.856Z,4.10
2022-11-09T13:47:37.715Z,3.38
2022-11-09T13:50:26.299Z,3.97
2022-11-09T13:53:29.509Z,4.85
2022-11-09T13:56:27.311Z,5.50
2022-11-09T13:59:19.340Z,3.92
2022-11-09T14:02:20.121Z,3.70
2022-11-09T14:05:24.903Z,3.00
2022-11-09T14:08:21.740Z,3.63
2022-11-09T14:11:25.611Z,3.88
2022-11-09T14:14:38.095Z,4.00
2022-11-09T14:17:33.083Z,4.32
2022-11-09T14:20:30.200Z,4.30
2022-11-09T14:23:19.330Z,6.53
2022-11-09T14:26:11.509Z,4.57
2022-11-09T14:28:58.036Z,5.72
2022-11-09T14:31:45.803Z,5.28
2022-11-09T14:34:32.576Z,5.68
2022-11-09T14:37:22.211Z,6.10
2022-11-09T14:40:18.251Z,5.88
2022-11-09T14:43:14.710Z,7.72
2022-11-09T14:46:03.824Z,4.97
2022-11-09T14:48:53.234Z,6.57
2022-11-09T14:51:41.659Z,6.60
2022-11-09T14:54:29.954Z,6.00
2022-11-09T14:57:18.068Z,5.47
2022-11-09T15:00:06.082Z,4.90
2022-11-09T15:02:53.277Z,5.90
2022-11-09T15:05:41.850Z,6.20
2022-11-09T15:08:30.169Z,5.63
2022-11-09T15:11:18.080Z,7.43
2022-11-09T15:14:13.556Z,6.75
2022-11-09T15:17:13.563Z,6.38
2022-11-09T15:20:03.084Z,8.60
2022-11-09T15:22:53.700Z,6.80
2022-11-09T15:25:56.646Z,8.45
2022-11-09T15:28:49.109Z,7.95
2022-11-09T15:31:35.659Z,7.53
2022-11-09T15:34:25.106Z,6.95
2022-11-09T15:37:28.062Z,7.60
2022-11-09T15:40:17.763Z,9.65
2022-11-09T15:43:04.706Z,9.38
2022-11-09T15:45:53.071Z,8.50
2022-11-09T15:48:44.723Z,7.45
2022-11-09T15:51:32.895Z,8.00
2022-11-09T15:54:20.417Z,7.85
2022-11-09T15:57:06.971Z,7.88
2022-11-09T15:59:53.848Z,7.63
2022-11-09T16:02:42.081Z,7.40
2022-11-09T16:05:30.056Z,7.35
2022-11-09T16:08:16.891Z,7.18
2022-11-09T16:11:05.721Z,8.20
2022-11-09T16:13:52.294Z,6.68
2022-11-09T16:16:38.922Z,7.38
2022-11-09T16:19:27.032Z,7.10
2022-11-09T16:22:13.876Z,7.00
2022-11-09T16:25:00.702Z,7.80
2022-11-09T16:27:50.718Z,7.68
2022-11-09T16:30:41.552Z,7.78
2022-11-09T16:33:31.325Z,7.78
2022-11-09T16:36:22.724Z,8.93
2022-11-09T16:39:12.829Z,8.93
2022-11-09T16:42:02.834Z,9.65
2022-11-09T16:44:50.623Z,8.80
2022-11-09T16:47:40.995Z,10.02
2022-11-09T16:50:27.561Z,10.55
2022-11-09T16:53:15.805Z,9.52
2022-11-09T16:56:02.479Z,9.63
2022-11-09T16:58:49.238Z,9.40
2022-11-09T17:01:35.758Z,10.82
2022-11-09T17:04:23.770Z,12.40
2022-11-09T17:07:11.294Z,24.52
2022-11-09T17:09:59.401Z,10.43
2022-11-09T17:12:46.102Z,10.27
2022-11-09T17:15:33.059Z,13.27
2022-11-09T17:18:20.052Z,10.85
2022-11-09T17:21:11.659Z,10.88
2022-11-09T17:23:59.533Z,9.38
2022-11-09T17:26:47.920Z,10.88
2022-11-09T17:29:34.327Z,10.50
2022-11-09T17:32:24.949Z,9.43
2022-11-09T17:35:11.661Z,10.80
2022-11-09T17:37:59.114Z,11.85
2022-11-09T17:40:45.624Z,13.10
2022-11-09T17:43:35.638Z,11.40
2022-11-09T17:46:23.896Z,11.00
2022-11-09T17:49:10.760Z,13.40
2022-11-09T17:51:57.820Z,11.93
2022-11-09T17:54:44.759Z,12.75
2022-11-09T17:57:31.705Z,11.65
2022-11-09T18:00:21.095Z,14.23
2022-11-09T18:03:07.886Z,11.82
2022-11-09T18:05:54.624Z,14.95
2022-11-09T18:08:42.362Z,17.83
2022-11-09T18:11:30.211Z,15.93
2022-11-09T18:14:17.378Z,13.20
2022-11-09T18:17:05.455Z,14.05
2022-11-09T18:19:52.450Z,15.45
2022-11-09T18:22:39.016Z,14.68
2022-11-09T18:25:26.383Z,14.55
2022-11-09T18:28:14.127Z,16.33
2022-11-09T18:31:02.113Z,16.42
2022-11-09T18:33:51.384Z,16.80
2022-11-09T18:36:38.221Z,14.25
2022-11-09T18:39:26.307Z,10.55
2022-11-09T18:42:13.020Z,11.82
2022-11-09T18:45:00.159Z,9.65
2022-11-09T18:47:50.521Z,8.70
2022-11-09T18:50:39.989Z,9.45
2022-11-09T18:53:28.400Z,9.07
2022-11-09T18:56:18.960Z,8.38
2022-11-09T18:59:05.558Z,8.38
2022-11-09T19:01:52.622Z,11.43
2022-11-09T19:04:42.685Z,10.20
2022-11-09T19:07:31.008Z,9.80
2022-11-09T19:10:20.188Z,7.82
2022-11-09T19:13:07.435Z,7.95
2022-11-09T19:15:58.163Z,8.35
2022-11-09T19:18:47.526Z,10.20
2022-11-09T19:21:38.668Z,9.73
2022-11-09T19:24:30.994Z,10.30
2022-11-09T19:27:18.413Z,9.45
2022-11-09T19:30:09.404Z,10.48
2022-11-09T19:32:56.676Z,12.10
2022-11-09T19:35:45.051Z,11.13
2022-11-09T19:38:35.925Z,10.73
2022-11-09T19:41:25.109Z,10.75
2022-11-09T19:44:15.052Z,10.07
2022-11-09T19:47:11.371Z,9.75
2022-11-09T19:49:58.402Z,9.70
2022-11-09T19:52:45.064Z,9.15
2022-11-09T19:55:31.645Z,8.57
2022-11-09T19:58:19.991Z,9.57
2022-11-09T20:01:08.967Z,8.90
2022-11-09T20:03:58.354Z,9.93
2022-11-09T20:06:45.130Z,9.05
2022-11-09T20:09:32.688Z,9.45
2022-11-09T20:12:36.500Z,9.20
2022-11-09T20:15:25.132Z,9.35
2022-11-09T20:18:11.915Z,9.55
2022-11-09T20:20:58.331Z,10.88
2022-11-09T20:23:45.207Z,11.35
2022-11-09T20:26:31.777Z,10.57
2022-11-09T20:29:18.436Z,11.30
2022-11-09T20:32:09.513Z,9.70
2022-11-09T20:34:58.940Z,10.65
2022-11-09T20:37:45.501Z,11.65
2022-11-09T20:40:32.351Z,11.20
2022-11-09T20:43:19.261Z,11.18
2022-11-09T20:46:07.140Z,12.10
2022-11-09T20:48:55.884Z,14.13
2022-11-09T20:51:42.759Z,11.77
2022-11-09T20:54:29.239Z,11.65
2022-11-09T20:57:15.767Z,12.48
2022-11-09T21:00:02.310Z,10.88
2022-11-09T21:02:48.806Z,10.45
2022-11-09T21:05:36.902Z,9.48
2022-11-09T21:08:23.942Z,10.38
2022-11-09T21:11:13.405Z,11.32
2022-11-09T21:14:00.033Z,11.18
2022-11-09T21:16:46.522Z,11.20
2022-11-09T21:19:33.039Z,10.15
2022-11-09T21:22:21.206Z,11.13
2022-11-09T21:25:25.739Z,10.05
2022-11-09T21:28:33.636Z,10.18
2022-11-09T21:31:20.414Z,10.43
2022-11-09T21:34:07.272Z,10.02
2022-11-09T21:36:53.957Z,9.80
2022-11-09T21:39:46.472Z,11.70
2022-11-09T21:42:33.158Z,12.40
2022-11-09T21:45:19.983Z,10.45
2022-11-09T21:48:07.957Z,9.52
2022-11-09T21:50:58.625Z,8.00
2022-11-09T21:53:45.217Z,7.47
2022-11-09T21:56:33.351Z,6.78
2022-11-09T21:59:19.879Z,6.60
2022-11-09T22:02:06.369Z,7.20
2022-11-09T22:04:52.957Z,7.38
2022-11-09T22:07:39.404Z,6.75
2022-11-09T22:10:25.792Z,6.53
2022-11-09T22:13:33.397Z,5.70
2022-11-09T22:16:21.309Z,6.00
2022-11-09T22:19:33.650Z,5.85
2022-11-09T22:22:21.117Z,5.43
2022-11-09T22:25:09.250Z,4.82
2022-11-09T22:27:56.997Z,4.65
2022-11-09T22:30:45.137Z,4.90
2022-11-09T22:33:33.008Z,4.63
2022-11-09T22:36:19.909Z,5.35
2022-11-09T22:39:06.342Z,4.22
2022-11-09T22:41:52.964Z,4.22
2022-11-09T22:44:39.815Z,4.78
2022-11-09T22:47:27.939Z,4.47
2022-11-09T22:50:14.803Z,4.55
2022-11-09T22:53:03.880Z,3.78
2022-11-09T22:55:53.920Z,4.60
2022-11-09T22:58:40.670Z,5.53
2022-11-09T23:01:28.307Z,3.60
2022-11-09T23:04:17.747Z,4.18
2022-11-09T23:07:04.511Z,3.72
2022-11-09T23:09:51.530Z,3.83
2022-11-09T23:12:38.476Z,4.10
2022-11-09T23:15:25.384Z,3.35
2022-11-09T23:18:29.462Z,3.67
2022-11-09T23:21:18.271Z,3.10
2022-11-09T23:24:06.903Z,3.53
2022-11-09T23:26:53.579Z,3.42
2022-11-09T23:29:40.083Z,3.15
2022-11-09T23:32:26.618Z,3.05
2022-11-09T23:35:13.156Z,3.35
2022-11-09T23:38:01.963Z,3.65
2022-11-09T23:40:49.242Z,3.65
2022-11-09T23:43:36.275Z,3.33
2022-11-09T23:46:23.191Z,3.00
2022-11-09T23:49:09.967Z,2.83
2022-11-09T23:51:56.493Z,2.58
2022-11-09T23:54:45.570Z,2.92
2022-11-09T23:57:32.166Z,2.45
